ESNU/UME METAR and TAF weather

Enter ICAO airport designator
Station Type Date Time Source
ESNU METAR 2020/09/25 19:20 UTC NOAA

ESNU 251920Z 00000KT CAVOK 04/03 Q1010


Station Type Date Time Source
ESNU Decoded METAR 2020/09/25 19:20 UTC NOAA

Umea Flygplats, Sweden (ESNU) 63-48N 020-17E 14M
Sep 25, 2020 - 03:20 PM EDT / 2020.09.25 1920 UTC
Wind: Calm:0
Visibility: greater than 7 mile(s):0
Temperature: 39 F (4 C)
Dew Point: 37 F (3 C)
Relative Humidity: 93%
Pressure (altimeter): 29.83 in. Hg (1010 hPa)
ob: ESNU 251920Z 00000KT CAVOK 04/03 Q1010
cycle: 19

Station Type Date Time Source
ESNU TAF 2019/10/24 00:55 UTC NOAA

TAF
AMD ESNU 242348Z 2500/2524 16003KT 0200 FG VV002 PROB40 2500/2509 8000 -RA BKN005

Example: see airport list